Time;durP1;ratioP1;P1;durP2;ratioP2;P2;SDS_P1;SDS_P2;PMS_P1;PMS_P2;Temp;Humidity;BMP_temperature;BMP_pressure;BME280_temperature;BME280_humidity;BME280_pressure;Samples;Min_cycle;Max_cycle;Signal;HPM_P1;HPM_P2
2023/03/04 00:00:53;;;;;;;2.30;1.00;;;;;;;;;;6298122;22;20016;-62
2023/03/04 00:03:20;;;;;;;2.25;0.80;;;;;;;;;;6301031;22;20051;-61
2023/03/04 00:05:54;;;;;;;1.90;0.82;;;;;;;;;;6300285;22;20015;-61
2023/03/04 00:08:21;;;;;;;1.10;0.95;;;;;;;;;;6299532;22;20106;-61
2023/03/04 00:10:55;;;;;;;1.42;0.98;;;;;;;;;;6301941;22;20094;-61
2023/03/04 00:13:34;;;;;;;2.78;1.10;;;;;;;;;;6299305;22;20102;-61
2023/03/04 00:16:09;;;;;;;1.95;1.05;;;;;;;;;;6299893;22;20054;-61
2023/03/04 00:18:36;;;;;;;2.85;1.00;;;;;;;;;;6301267;22;20469;-62
2023/03/04 00:21:10;;;;;;;2.67;1.10;;;;;;;;;;6301447;22;20038;-61
2023/03/04 00:23:37;;;;;;;;;;;;;;;;;;6299731;22;20027;-61
2023/03/04 00:26:04;;;;;;;3.95;1.00;;;;;;;;;;6299409;22;19949;-61
2023/03/04 00:28:38;;;;;;;2.20;0.90;;;;;;;;;;6300419;22;20027;-61
2023/03/04 00:31:06;;;;;;;2.53;0.90;;;;;;;;;;6300483;22;20476;-61
2023/03/04 00:33:42;;;;;;;1.83;0.70;;;;;;;;;;6299712;22;20034;-61
2023/03/04 00:36:10;;;;;;;2.92;1.10;;;;;;;;;;6300159;22;20532;-61
2023/03/04 00:38:37;;;;;;;1.88;0.77;;;;;;;;;;6300056;22;20417;-61
2023/03/04 00:41:11;;;;;;;3.78;0.90;;;;;;;;;;6301360;22;20053;-61
2023/03/04 00:43:38;;;;;;;2.42;0.93;;;;;;;;;;6299590;22;20094;-61
2023/03/04 00:46:12;;;;;;;3.20;0.82;;;;;;;;;;6298923;22;20103;-62
2023/03/04 00:48:39;;;;;;;1.58;0.55;;;;;;;;;;6301129;22;20504;-61
2023/03/04 00:51:06;;;;;;;2.83;0.70;;;;;;;;;;6299822;22;20540;-62
2023/03/04 00:53:39;;;;;;;0.93;0.65;;;;;;;;;;6300204;22;20038;-61
2023/03/04 00:56:07;;;;;;;1.15;0.55;;;;;;;;;;6298374;22;20362;-61
2023/03/04 00:58:40;;;;;;;1.75;0.80;;;;;;;;;;6299326;22;20059;-62
2023/03/04 01:01:09;;;;;;;1.13;0.77;;;;;;;;;;6300681;22;20094;-61
2023/03/04 01:03:43;;;;;;;2.47;0.60;;;;;;;;;;6300356;22;20023;-62
2023/03/04 01:06:10;;;;;;;0.98;0.50;;;;;;;;;;6298905;22;20792;-61
2023/03/04 01:08:44;;;;;;;0.93;0.50;;;;;;;;;;6298667;22;20118;-61
2023/03/04 01:11:11;;;;;;;10.73;0.70;;;;;;;;;;6300831;22;20023;-61
2023/03/04 01:13:58;;;;;;;2.85;0.57;;;;;;;;;;6299072;22;20062;-61
2023/03/04 01:16:33;;;;;;;2.95;1.13;;;;;;;;;;6298649;22;20567;-61
2023/03/04 01:19:07;;;;;;;0.88;0.60;;;;;;;;;;6299804;22;20030;-61
2023/03/04 01:21:41;;;;;;;1.23;0.60;;;;;;;;;;6300246;22;20029;-61
2023/03/04 01:24:08;;;;;;;1.38;0.98;;;;;;;;;;6300471;22;20094;-61
2023/03/04 01:26:42;;;;;;;0.82;0.60;;;;;;;;;;6299582;22;20136;-62
2023/03/04 01:29:09;;;;;;;0.98;0.50;;;;;;;;;;6300158;22;20556;-61
2023/03/04 01:31:42;;;;;;;0.88;0.60;;;;;;;;;;6298999;22;20054;-61
2023/03/04 01:34:10;;;;;;;0.47;0.47;;;;;;;;;;6299115;22;20029;-61
2023/03/04 01:36:44;;;;;;;3.25;0.70;;;;;;;;;;6298192;22;20107;-62
2023/03/04 01:39:11;;;;;;;1.42;0.68;;;;;;;;;;6300008;22;20102;-61
2023/03/04 01:41:38;;;;;;;1.27;0.65;;;;;;;;;;6300616;22;20121;-61
2023/03/04 01:44:12;;;;;;;2.35;0.50;;;;;;;;;;6299580;22;20415;-61
2023/03/04 01:46:42;;;;;;;1.23;0.57;;;;;;;;;;6297123;22;20098;-61
2023/03/04 01:49:16;;;;;;;3.20;0.70;;;;;;;;;;6299498;22;20102;-61
2023/03/04 01:51:43;;;;;;;;;;;;;;;;;;6301002;22;20019;-61
2023/03/04 01:54:17;;;;;;;0.70;0.60;;;;;;;;;;6299860;22;19961;-61
2023/03/04 01:56:45;;;;;;;3.67;0.55;;;;;;;;;;6296563;22;20103;-62
2023/03/04 01:59:20;;;;;;;0.47;0.47;;;;;;;;;;6299521;22;20058;-61
2023/03/04 02:01:58;;;;;;;3.55;0.80;;;;;;;;;;6299439;22;20551;-61
2023/03/04 02:04:33;;;;;;;3.53;0.70;;;;;;;;;;6300125;22;20051;-61
2023/03/04 02:07:01;;;;;;;0.77;0.68;;;;;;;;;;6299126;22;20020;-61
2023/03/04 02:09:35;;;;;;;2.92;0.82;;;;;;;;;;6272061;22;20430;-61
2023/03/04 02:12:03;;;;;;;0.93;0.68;;;;;;;;;;6299145;22;20019;-62
2023/03/04 02:14:43;;;;;;;1.45;0.50;;;;;;;;;;6298159;22;20029;-61
2023/03/04 02:17:11;;;;;;;2.38;0.52;;;;;;;;;;6299716;22;20019;-61
2023/03/04 02:19:53;;;;;;;1.13;0.63;;;;;;;;;;6299095;22;20094;-62
2023/03/04 02:22:21;;;;;;;1.05;0.60;;;;;;;;;;6300522;22;20098;-61
2023/03/04 02:25:00;;;;;;;1.15;0.95;;;;;;;;;;6300802;22;20023;-61
2023/03/04 02:27:27;;;;;;;1.55;0.60;;;;;;;;;;6300188;22;20023;-61
2023/03/04 02:29:54;;;;;;;1.35;0.70;;;;;;;;;;6301184;22;20264;-62
2023/03/04 02:32:28;;;;;;;0.75;0.73;;;;;;;;;;6302100;22;20103;-61
2023/03/04 02:34:55;;;;;;;1.05;0.60;;;;;;;;;;6300899;22;20019;-61
2023/03/04 02:37:29;;;;;;;0.85;0.50;;;;;;;;;;6299346;22;20106;-62
2023/03/04 02:39:56;;;;;;;2.30;0.80;;;;;;;;;;6299124;22;20488;-61
2023/03/04 02:42:30;;;;;;;1.08;0.90;;;;;;;;;;6301476;22;20098;-61
2023/03/04 02:45:00;;;;;;;1.20;0.73;;;;;;;;;;6300980;22;20118;-61
2023/03/04 02:47:34;;;;;;;0.88;0.63;;;;;;;;;;6300392;22;20055;-62
2023/03/04 02:50:02;;;;;;;1.55;0.80;;;;;;;;;;6301079;22;20023;-61
2023/03/04 02:52:29;;;;;;;0.38;0.38;;;;;;;;;;6301571;22;20093;-61
2023/03/04 02:55:03;;;;;;;1.33;0.65;;;;;;;;;;6302231;22;20035;-61
2023/03/04 02:57:30;;;;;;;0.60;0.57;;;;;;;;;;6299911;22;20027;-61
2023/03/04 02:59:57;;;;;;;2.08;0.65;;;;;;;;;;6298792;22;20571;-62
2023/03/04 03:02:31;;;;;;;1.75;0.70;;;;;;;;;;6300862;22;20027;-61
2023/03/04 03:04:58;;;;;;;0.88;0.60;;;;;;;;;;6301245;22;20023;-61
2023/03/04 03:07:33;;;;;;;2.63;0.70;;;;;;;;;;6300123;22;20030;-61
2023/03/04 03:10:01;;;;;;;1.92;0.68;;;;;;;;;;6301082;22;20034;-61
2023/03/04 03:12:35;;;;;;;1.70;0.82;;;;;;;;;;6299056;22;20419;-61
2023/03/04 03:15:08;;;;;;;1.83;0.88;;;;;;;;;;6299695;22;20023;-61
2023/03/04 03:17:49;;;;;;;6.35;0.68;;;;;;;;;;6299641;22;20062;-61
2023/03/04 03:20:24;;;;;;;3.05;0.73;;;;;;;;;;6301404;22;20570;-61
2023/03/04 03:22:58;;;;;;;1.60;0.80;;;;;;;;;;6301571;22;20046;-61
2023/03/04 03:25:32;;;;;;;1.42;0.70;;;;;;;;;;6300280;22;20407;-61
2023/03/04 03:27:59;;;;;;;2.05;0.70;;;;;;;;;;6300572;22;20102;-61
2023/03/04 03:30:33;;;;;;;2.00;1.17;;;;;;;;;;6299765;22;20085;-62
2023/03/04 03:33:00;;;;;;;1.30;0.40;;;;;;;;;;6300669;22;20461;-61
2023/03/04 03:35:27;;;;;;;1.30;0.70;;;;;;;;;;6301688;22;20025;-61
2023/03/04 03:38:01;;;;;;;2.85;0.85;;;;;;;;;;6300353;22;20029;-61
2023/03/04 03:40:28;;;;;;;5.55;0.77;;;;;;;;;;6300392;22;20043;-61
2023/03/04 03:43:02;;;;;;;3.55;0.73;;;;;;;;;;6301148;22;20098;-61
2023/03/04 03:45:29;;;;;;;2.40;0.70;;;;;;;;;;6300654;22;20597;-61
2023/03/04 03:48:03;;;;;;;1.67;0.70;;;;;;;;;;6298459;22;20045;-61
2023/03/04 03:50:30;;;;;;;2.20;0.95;;;;;;;;;;6299320;22;20025;-61
2023/03/04 03:53:04;;;;;;;1.10;0.50;;;;;;;;;;6301170;22;20049;-61
2023/03/04 03:55:31;;;;;;;;;;;;;;;;;;6300975;22;20038;-61
2023/03/04 03:57:58;;;;;;;1.80;0.70;;;;;;;;;;6298167;22;19926;-61
2023/03/04 04:00:32;;;;;;;1.60;0.47;;;;;;;;;;6301277;22;20055;-61
2023/03/04 04:02:59;;;;;;;2.58;0.70;;;;;;;;;;6300364;22;20030;-62
2023/03/04 04:05:34;;;;;;;1.55;0.70;;;;;;;;;;6301134;22;20030;-61
2023/03/04 04:08:01;;;;;;;4.22;0.70;;;;;;;;;;6299880;22;20033;-61
2023/03/04 04:10:28;;;;;;;5.00;0.75;;;;;;;;;;6300842;22;20021;-61
2023/03/04 04:13:02;;;;;;;2.38;0.88;;;;;;;;;;6300491;22;20085;-61
2023/03/04 04:15:37;;;;;;;2.47;0.73;;;;;;;;;;6300232;22;20015;-61
2023/03/04 04:18:11;;;;;;;2.38;0.95;;;;;;;;;;6300360;22;20126;-61
2023/03/04 04:20:38;;;;;;;3.25;1.10;;;;;;;;;;6300417;22;20029;-61
2023/03/04 04:23:05;;;;;;;1.35;0.85;;;;;;;;;;6300448;22;20098;-61
2023/03/04 04:25:39;;;;;;;2.53;1.02;;;;;;;;;;6300262;22;20090;-61
2023/03/04 04:28:06;;;;;;;1.27;0.70;;;;;;;;;;6299063;22;20473;-61
2023/03/04 04:30:33;;;;;;;1.65;0.50;;;;;;;;;;6300077;22;20094;-61
2023/03/04 04:33:07;;;;;;;3.85;0.82;;;;;;;;;;6300728;22;20353;-60
2023/03/04 04:35:37;;;;;;;3.13;1.45;;;;;;;;;;6299712;22;20027;-61
2023/03/04 04:38:11;;;;;;;1.80;0.77;;;;;;;;;;6300414;22;20473;-60
2023/03/04 04:40:38;;;;;;;1.60;0.52;;;;;;;;;;6301143;22;20055;-61
2023/03/04 04:43:05;;;;;;;1.77;0.90;;;;;;;;;;6299088;22;20527;-60
2023/03/04 04:45:39;;;;;;;2.47;0.80;;;;;;;;;;6300082;22;20058;-61
2023/03/04 04:48:07;;;;;;;0.80;0.60;;;;;;;;;;6299950;22;20030;-61
2023/03/04 04:50:41;;;;;;;3.03;0.70;;;;;;;;;;6300571;22;20019;-60
2023/03/04 04:53:08;;;;;;;;;;;;;;;;;;6301398;22;20027;-60
2023/03/04 04:55:35;;;;;;;2.72;0.80;;;;;;;;;;6299151;22;20001;-61
2023/03/04 04:58:09;;;;;;;3.28;0.65;;;;;;;;;;6299652;22;20094;-60
2023/03/04 05:00:36;;;;;;;2.03;0.80;;;;;;;;;;6298840;22;20047;-60
2023/03/04 05:03:10;;;;;;;2.22;0.80;;;;;;;;;;6301308;22;20094;-61
2023/03/04 05:05:37;;;;;;;;;;;;;;;;;;6301398;22;20049;-60
2023/03/04 05:08:05;;;;;;;1.25;0.50;;;;;;;;;;6298560;22;20255;-60
2023/03/04 05:10:39;;;;;;;6.05;0.90;;;;;;;;;;6300822;22;20016;-61
2023/03/04 05:13:13;;;;;;;5.82;0.98;;;;;;;;;;6299306;22;20388;-61
2023/03/04 05:15:54;;;;;;;1.70;0.80;;;;;;;;;;6268065;22;20426;-61
2023/03/04 05:18:22;;;;;;;1.45;0.73;;;;;;;;;;6269045;22;20244;-61
2023/03/04 05:21:00;;;;;;;2.85;0.90;;;;;;;;;;6269453;22;20019;-60
2023/03/04 05:23:28;;;;;;;4.70;1.13;;;;;;;;;;6268090;22;20027;-60
2023/03/04 05:25:55;;;;;;;3.60;1.10;;;;;;;;;;6267936;22;20022;-61
2023/03/04 05:28:30;;;;;;;1.33;0.82;;;;;;;;;;6269691;22;20030;-61
2023/03/04 05:30:57;;;;;;;5.50;1.00;;;;;;;;;;6268244;22;20022;-60
2023/03/04 05:33:31;;;;;;;4.95;0.98;;;;;;;;;;6267045;22;20480;-60
2023/03/04 05:35:58;;;;;;;1.98;0.60;;;;;;;;;;6266637;22;20100;-60
2023/03/04 05:38:32;;;;;;;4.68;0.85;;;;;;;;;;6269411;22;20055;-60
2023/03/04 05:41:00;;;;;;;5.85;1.35;;;;;;;;;;6266973;22;20532;-60
2023/03/04 05:43:34;;;;;;;5.07;1.20;;;;;;;;;;6268713;22;20027;-60
2023/03/04 05:46:03;;;;;;;2.38;0.90;;;;;;;;;;6268605;22;20016;-61
2023/03/04 05:48:30;;;;;;;2.97;1.17;;;;;;;;;;6269518;22;20062;-60
2023/03/04 05:51:04;;;;;;;4.68;0.85;;;;;;;;;;6267817;22;20103;-60
2023/03/04 05:53:31;;;;;;;1.48;0.80;;;;;;;;;;6268637;22;20635;-61
2023/03/04 05:56:09;;;;;;;1.15;0.60;;;;;;;;;;6268422;22;20218;-60
2023/03/04 05:58:36;;;;;;;3.75;1.10;;;;;;;;;;6270037;22;20100;-61
2023/03/04 06:01:10;;;;;;;4.60;0.95;;;;;;;;;;6267422;22;20954;-61
2023/03/04 06:03:38;;;;;;;3.70;0.60;;;;;;;;;;6267502;22;20054;-60
2023/03/04 06:06:05;;;;;;;3.05;0.70;;;;;;;;;;6267082;22;20065;-61
2023/03/04 06:08:39;;;;;;;1.98;0.95;;;;;;;;;;6270255;22;20046;-60
2023/03/04 06:11:06;;;;;;;1.98;0.70;;;;;;;;;;6266172;22;20028;-60
2023/03/04 06:13:53;;;;;;;3.75;1.02;;;;;;;;;;6271459;22;20027;-61
2023/03/04 06:16:27;;;;;;;1.00;0.88;;;;;;;;;;6298415;22;20069;-61
2023/03/04 06:19:01;;;;;;;2.65;0.90;;;;;;;;;;6293573;22;20094;-60
2023/03/04 06:21:28;;;;;;;4.22;0.95;;;;;;;;;;6299226;22;20579;-61
2023/03/04 06:24:02;;;;;;;2.00;0.80;;;;;;;;;;6300756;22;20043;-60
2023/03/04 06:26:29;;;;;;;3.13;0.85;;;;;;;;;;6298889;22;20097;-60
2023/03/04 06:29:04;;;;;;;4.97;0.93;;;;;;;;;;6299357;22;20098;-61
2023/03/04 06:31:31;;;;;;;1.17;0.73;;;;;;;;;;6299373;22;20090;-62
2023/03/04 06:34:05;;;;;;;1.70;0.85;;;;;;;;;;6297735;22;20100;-61
2023/03/04 06:36:33;;;;;;;3.35;1.27;;;;;;;;;;6298590;22;20122;-61
2023/03/04 06:39:07;;;;;;;2.47;0.85;;;;;;;;;;6299712;22;20070;-61
2023/03/04 06:41:35;;;;;;;6.68;1.20;;;;;;;;;;6297239;22;20023;-60
2023/03/04 06:44:02;;;;;;;;;;;;;;;;;;6271265;22;20057;-61
2023/03/04 06:46:36;;;;;;;2.83;0.90;;;;;;;;;;6298921;22;19993;-61
2023/03/04 06:49:03;;;;;;;2.40;0.95;;;;;;;;;;6298308;22;20313;-61
2023/03/04 06:51:37;;;;;;;0.77;0.60;;;;;;;;;;6299198;22;20438;-61
2023/03/04 06:54:04;;;;;;;3.45;1.05;;;;;;;;;;6299319;22;20058;-61
2023/03/04 06:56:31;;;;;;;0.93;0.70;;;;;;;;;;6299358;22;20621;-60
2023/03/04 06:59:05;;;;;;;7.70;1.10;;;;;;;;;;6295050;22;20020;-61
2023/03/04 07:01:33;;;;;;;1.23;0.55;;;;;;;;;;6299455;22;20102;-60
2023/03/04 07:04:07;;;;;;;4.75;0.90;;;;;;;;;;6298571;22;20053;-61
2023/03/04 07:06:34;;;;;;;0.95;0.60;;;;;;;;;;6300480;22;20033;-61
2023/03/04 07:09:01;;;;;;;1.27;0.65;;;;;;;;;;6299933;22;20094;-61
2023/03/04 07:11:35;;;;;;;7.68;1.00;;;;;;;;;;6300528;22;20499;-61
2023/03/04 07:14:14;;;;;;;1.42;0.95;;;;;;;;;;6301595;22;20057;-61
2023/03/04 07:16:50;;;;;;;1.33;0.80;;;;;;;;;;6300666;22;20019;-61
2023/03/04 07:19:17;;;;;;;1.25;0.57;;;;;;;;;;6300893;22;20027;-61
2023/03/04 07:21:51;;;;;;;3.17;1.02;;;;;;;;;;6299027;22;20359;-61
2023/03/04 07:24:25;;;;;;;4.15;1.00;;;;;;;;;;6299698;22;20102;-62
2023/03/04 07:26:52;;;;;;;1.15;0.70;;;;;;;;;;6299299;22;20739;-62
2023/03/04 07:29:19;;;;;;;2.65;0.93;;;;;;;;;;6301083;22;20102;-61
2023/03/04 07:31:53;;;;;;;2.63;0.68;;;;;;;;;;6299508;22;20065;-61
2023/03/04 07:34:20;;;;;;;3.78;1.00;;;;;;;;;;6298904;22;20023;-61
2023/03/04 07:36:55;;;;;;;3.47;0.73;;;;;;;;;;6301495;22;20023;-62
2023/03/04 07:39:22;;;;;;;3.40;1.00;;;;;;;;;;6300554;22;20746;-61
2023/03/04 07:41:49;;;;;;;1.05;0.60;;;;;;;;;;6300365;22;20031;-61
2023/03/04 07:44:23;;;;;;;2.45;0.77;;;;;;;;;;6300780;22;20030;-61
2023/03/04 07:46:50;;;;;;;2.33;0.80;;;;;;;;;;6297024;22;20099;-62
2023/03/04 07:49:24;;;;;;;3.10;0.95;;;;;;;;;;6300427;22;20068;-61
2023/03/04 07:51:51;;;;;;;2.42;0.80;;;;;;;;;;6300804;22;20015;-61
2023/03/04 07:54:19;;;;;;;2.60;0.90;;;;;;;;;;6299810;22;20469;-62
2023/03/04 07:56:53;;;;;;;2.47;0.90;;;;;;;;;;6298804;22;20023;-60
2023/03/04 07:59:20;;;;;;;1.58;0.60;;;;;;;;;;6299349;22;20091;-63
2023/03/04 08:01:54;;;;;;;6.05;0.63;;;;;;;;;;6300518;22;20015;-62
2023/03/04 08:04:21;;;;;;;3.58;0.75;;;;;;;;;;6299291;22;20545;-61
2023/03/04 08:06:49;;;;;;;1.55;1.00;;;;;;;;;;6299924;22;20330;-62
2023/03/04 08:09:23;;;;;;;1.55;0.85;;;;;;;;;;6299278;22;20102;-61
2023/03/04 08:11:50;;;;;;;3.95;0.90;;;;;;;;;;6293465;22;20019;-61
2023/03/04 08:14:17;;;;;;;1.80;0.73;;;;;;;;;;6298342;22;20050;-61
2023/03/04 08:16:51;;;;;;;2.17;0.90;;;;;;;;;;6297266;22;20058;-61
2023/03/04 08:19:18;;;;;;;2.38;1.00;;;;;;;;;;6296353;22;20090;-61
2023/03/04 08:21:52;;;;;;;4.55;0.73;;;;;;;;;;6299487;22;20396;-62
2023/03/04 08:24:19;;;;;;;5.10;1.30;;;;;;;;;;6298747;22;20093;-62
2023/03/04 08:26:53;;;;;;;2.45;0.95;;;;;;;;;;6297747;22;20059;-61
2023/03/04 08:29:21;;;;;;;1.55;0.77;;;;;;;;;;6297808;22;20023;-62
2023/03/04 08:31:49;;;;;;;2.22;0.85;;;;;;;;;;6296525;22;20101;-61
2023/03/04 08:34:24;;;;;;;2.42;1.15;;;;;;;;;;6295569;22;20121;-61
2023/03/04 08:36:51;;;;;;;2.80;0.90;;;;;;;;;;6296903;22;20135;-62
2023/03/04 08:39:25;;;;;;;1.35;0.75;;;;;;;;;;6297454;22;20109;-62
2023/03/04 08:41:52;;;;;;;2.47;0.68;;;;;;;;;;6298065;22;20476;-62
2023/03/04 08:44:19;;;;;;;2.92;0.70;;;;;;;;;;6298458;22;20098;-62
2023/03/04 08:46:53;;;;;;;2.13;0.80;;;;;;;;;;6297453;22;20023;-62
2023/03/04 08:49:20;;;;;;;3.28;0.70;;;;;;;;;;6299042;22;20027;-62
2023/03/04 08:51:54;;;;;;;2.03;0.68;;;;;;;;;;6299408;22;20055;-62
2023/03/04 08:54:21;;;;;;;1.75;0.63;;;;;;;;;;6295437;22;20297;-60
2023/03/04 08:56:48;;;;;;;3.83;0.77;;;;;;;;;;6298839;22;20057;-59
2023/03/04 08:59:22;;;;;;;4.47;0.80;;;;;;;;;;6298458;22;20021;-60
2023/03/04 09:01:49;;;;;;;1.52;0.80;;;;;;;;;;6298895;22;20019;-59
2023/03/04 09:04:23;;;;;;;2.53;1.05;;;;;;;;;;6299892;22;20347;-59
2023/03/04 09:06:50;;;;;;;8.82;1.02;;;;;;;;;;6299426;22;20106;-60
2023/03/04 09:09:20;;;;;;;0.70;0.40;;;;;;;;;;6299043;22;20027;-60
2023/03/04 09:11:54;;;;;;;1.55;0.95;;;;;;;;;;6298629;22;20027;-60
2023/03/04 09:14:21;;;;;;;2.38;0.93;;;;;;;;;;6299676;22;20047;-60
2023/03/04 09:17:03;;;;;;;1.98;0.63;;;;;;;;;;6273032;22;20093;-60
2023/03/04 09:19:30;;;;;;;2.15;1.02;;;;;;;;;;6298718;22;20020;-60
2023/03/04 09:22:04;;;;;;;1.98;1.00;;;;;;;;;;6298665;22;20672;-59
2023/03/04 09:24:31;;;;;;;5.05;1.58;;;;;;;;;;6299275;22;20062;-59
2023/03/04 09:26:58;;;;;;;7.43;1.40;;;;;;;;;;6298752;22;20086;-60
2023/03/04 09:29:32;;;;;;;3.72;1.10;;;;;;;;;;6298968;22;20034;-60
2023/03/04 09:31:59;;;;;;;3.30;0.93;;;;;;;;;;6297179;22;20051;-59
2023/03/04 09:34:33;;;;;;;4.13;1.10;;;;;;;;;;6299798;22;20511;-60
2023/03/04 09:37:00;;;;;;;3.40;0.70;;;;;;;;;;6300009;22;20468;-60
2023/03/04 09:39:27;;;;;;;2.72;1.02;;;;;;;;;;6300349;22;20105;-60
2023/03/04 09:42:01;;;;;;;2.42;0.82;;;;;;;;;;6300470;22;20475;-60
2023/03/04 09:44:35;;;;;;;2.53;0.55;;;;;;;;;;6300518;22;20111;-60
2023/03/04 09:47:14;;;;;;;3.03;0.80;;;;;;;;;;6296941;22;20051;-60
2023/03/04 09:49:43;;;;;;;1.20;0.60;;;;;;;;;;6297114;22;20034;-60
2023/03/04 09:52:20;;;;;;;0.90;0.55;;;;;;;;;;6295766;22;20019;-60
2023/03/04 09:54:58;;;;;;;0.73;0.73;;;;;;;;;;6271373;22;20058;-60
2023/03/04 09:57:52;;;;;;;1.23;0.70;;;;;;;;;;6299040;22;20094;-63
2023/03/04 10:00:35;;;;;;;1.58;0.70;;;;;;;;;;6271303;22;20076;-59
2023/03/04 10:03:09;;;;;;;2.35;0.93;;;;;;;;;;6298926;22;20102;-59
2023/03/04 10:05:36;;;;;;;;;;;;;;;;;;6300002;22;20051;-59
2023/03/04 10:08:13;;;;;;;1.30;0.70;;;;;;;;;;6297745;22;19929;-58
2023/03/04 10:10:42;;;;;;;3.22;0.80;;;;;;;;;;6298755;22;20081;-59
2023/03/04 10:13:18;;;;;;;2.95;0.85;;;;;;;;;;6300447;22;20023;-59
2023/03/04 10:15:54;;;;;;;4.30;0.77;;;;;;;;;;6298561;22;20102;-59
2023/03/04 10:18:40;;;;;;;2.78;0.70;;;;;;;;;;6300971;22;20042;-57
2023/03/04 10:21:15;;;;;;;1.98;0.70;;;;;;;;;;6298781;22;20023;-59
2023/03/04 10:23:49;;;;;;;3.17;1.00;;;;;;;;;;6298938;22;20023;-59
2023/03/04 10:26:19;;;;;;;1.92;0.70;;;;;;;;;;6295461;22;20098;-58
2023/03/04 10:28:53;;;;;;;1.20;0.70;;;;;;;;;;6298802;22;20318;-58
2023/03/04 10:31:26;;;;;;;2.90;0.77;;;;;;;;;;6298297;22;20113;-58
2023/03/04 10:34:00;;;;;;;0.95;0.50;;;;;;;;;;6298469;22;20027;-59
2023/03/04 10:36:30;;;;;;;1.98;1.00;;;;;;;;;;6296657;22;20072;-59
2023/03/04 10:39:18;;;;;;;1.95;0.98;;;;;;;;;;6297542;22;20058;-58
2023/03/04 10:41:53;;;;;;;1.63;0.70;;;;;;;;;;6298192;22;20035;-59
2023/03/04 10:44:27;;;;;;;2.40;0.70;;;;;;;;;;6300116;22;20019;-58
2023/03/04 10:46:55;;;;;;;2.30;0.75;;;;;;;;;;6299497;22;20023;-59
2023/03/04 10:49:29;;;;;;;3.17;0.60;;;;;;;;;;6300045;22;20094;-59
2023/03/04 10:51:56;;;;;;;;;;;;;;;;;;6300918;22;20024;-59
2023/03/04 10:54:48;;;;;;;1.05;0.70;;;;;;;;;;6299769;22;20500;-59
2023/03/04 10:57:20;;;;;;;3.63;0.65;;;;;;;;;;6300315;22;20024;-59
2023/03/04 10:59:54;;;;;;;;;;;;;;;;;;6298971;22;20025;-59
2023/03/04 11:02:26;;;;;;;1.17;0.43;;;;;;;;;;6300655;22;19972;-58
2023/03/04 11:04:53;;;;;;;3.70;0.50;;;;;;;;;;6299479;22;20059;-58
2023/03/04 11:07:27;;;;;;;3.30;0.70;;;;;;;;;;6299808;22;20565;-59
2023/03/04 11:09:54;;;;;;;1.60;0.65;;;;;;;;;;6297396;22;20476;-59
2023/03/04 11:12:31;;;;;;;2.83;0.50;;;;;;;;;;6299859;22;20356;-58
2023/03/04 11:15:19;;;;;;;1.90;0.85;;;;;;;;;;6297215;22;20392;-59
2023/03/04 11:17:58;;;;;;;2.55;0.95;;;;;;;;;;6301142;22;20117;-58
2023/03/04 11:20:29;;;;;;;1.55;0.80;;;;;;;;;;6299547;22;20023;-59
2023/03/04 11:23:05;;;;;;;1.67;0.60;;;;;;;;;;6299312;22;20025;-59
2023/03/04 11:25:38;;;;;;;0.77;0.60;;;;;;;;;;6300113;22;20023;-58
2023/03/04 11:28:15;;;;;;;2.55;0.52;;;;;;;;;;6300055;22;20042;-59
2023/03/04 11:30:45;;;;;;;2.20;0.77;;;;;;;;;;6299389;22;20027;-58
2023/03/04 11:33:19;;;;;;;3.30;0.70;;;;;;;;;;6300606;22;20042;-59
2023/03/04 11:35:46;;;;;;;0.85;0.50;;;;;;;;;;6298554;22;20057;-59
2023/03/04 11:38:21;;;;;;;1.65;0.80;;;;;;;;;;6300835;22;20066;-58
2023/03/04 11:40:48;;;;;;;2.25;0.60;;;;;;;;;;6300056;22;20503;-59
2023/03/04 11:43:25;;;;;;;1.58;0.80;;;;;;;;;;6301197;22;20099;-59
2023/03/04 11:46:06;;;;;;;3.92;0.90;;;;;;;;;;6301103;22;20023;-58
2023/03/04 11:48:52;;;;;;;3.45;1.02;;;;;;;;;;6301338;22;20051;-59
2023/03/04 11:51:39;;;;;;;2.55;1.15;;;;;;;;;;6300572;22;20106;-58
2023/03/04 11:54:13;;;;;;;1.63;0.73;;;;;;;;;;6256469;22;20020;-60
2023/03/04 11:56:44;;;;;;;0.75;0.60;;;;;;;;;;6300640;22;20053;-59
2023/03/04 11:59:24;;;;;;;7.72;0.85;;;;;;;;;;6273033;22;20105;-58
2023/03/04 12:01:58;;;;;;;0.85;0.50;;;;;;;;;;6299683;22;20070;-59
2023/03/04 12:04:52;;;;;;;1.35;0.43;;;;;;;;;;6299706;22;20102;-59
2023/03/04 12:07:32;;;;;;;1.48;0.70;;;;;;;;;;6284177;22;20330;-59
2023/03/04 12:10:06;;;;;;;1.30;0.57;;;;;;;;;;6300546;22;20023;-59
2023/03/04 12:12:39;;;;;;;2.03;0.82;;;;;;;;;;6301555;22;20122;-59
2023/03/04 12:15:30;;;;;;;1.45;0.50;;;;;;;;;;6298020;22;20023;-59
2023/03/04 12:18:10;;;;;;;2.78;0.90;;;;;;;;;;6300287;22;20033;-59
2023/03/04 12:21:03;;;;;;;2.55;0.90;;;;;;;;;;6300736;22;20031;-59
2023/03/04 12:23:42;;;;;;;1.98;0.70;;;;;;;;;;6300535;22;20098;-59
2023/03/04 12:26:28;;;;;;;0.65;0.40;;;;;;;;;;6300785;22;20046;-58
2023/03/04 12:28:58;;;;;;;2.22;0.60;;;;;;;;;;6299267;22;20023;-59
2023/03/04 12:31:42;;;;;;;0.68;0.60;;;;;;;;;;6299798;22;20015;-59
2023/03/04 12:34:26;;;;;;;0.73;0.60;;;;;;;;;;6301201;22;20029;-58
2023/03/04 12:37:08;;;;;;;1.77;0.70;;;;;;;;;;6300570;22;20027;-59
2023/03/04 12:39:42;;;;;;;4.28;0.80;;;;;;;;;;6300347;22;20401;-59
2023/03/04 12:42:36;;;;;;;1.77;0.60;;;;;;;;;;6300972;22;20026;-59
2023/03/04 12:45:03;;;;;;;1.40;0.50;;;;;;;;;;6299271;22;20015;-59
2023/03/04 12:47:47;;;;;;;1.15;0.60;;;;;;;;;;6299958;22;20425;-59
2023/03/04 12:50:24;;;;;;;0.95;0.57;;;;;;;;;;6299363;22;20077;-60
2023/03/04 12:53:06;;;;;;;1.17;0.50;;;;;;;;;;6300570;22;20057;-59
2023/03/04 12:55:42;;;;;;;1.33;0.60;;;;;;;;;;6300772;22;20097;-59
2023/03/04 12:58:17;;;;;;;3.45;1.08;;;;;;;;;;6295676;22;20019;-59
2023/03/04 13:01:14;;;;;;;2.65;0.57;;;;;;;;;;6297994;22;20015;-60
2023/03/04 13:04:00;;;;;;;1.80;0.63;;;;;;;;;;6299933;22;20324;-59
2023/03/04 13:06:46;;;;;;;1.15;0.63;;;;;;;;;;6298680;22;20026;-59
2023/03/04 13:09:31;;;;;;;3.22;0.68;;;;;;;;;;6300817;22;20023;-60
2023/03/04 13:12:15;;;;;;;2.35;0.80;;;;;;;;;;6299406;22;20118;-59
2023/03/04 13:15:02;;;;;;;0.83;0.50;;;;;;;;;;6293268;22;20081;-59
2023/03/04 13:17:40;;;;;;;1.85;0.55;;;;;;;;;;6294909;22;20252;-59
2023/03/04 13:20:28;;;;;;;2.42;0.82;;;;;;;;;;6296700;22;20027;-60
2023/03/04 13:23:03;;;;;;;1.38;0.82;;;;;;;;;;6296924;22;20027;-59
2023/03/04 13:25:31;;;;;;;1.75;0.70;;;;;;;;;;6295472;22;20068;-59
2023/03/04 13:28:10;;;;;;;1.88;0.80;;;;;;;;;;6296970;22;20053;-59
2023/03/04 13:30:44;;;;;;;1.02;0.70;;;;;;;;;;6295842;22;20395;-59
2023/03/04 13:33:21;;;;;;;1.85;0.82;;;;;;;;;;6296199;22;20019;-59
2023/03/04 13:35:50;;;;;;;2.92;0.73;;;;;;;;;;6294933;22;20027;-60
2023/03/04 13:38:27;;;;;;;1.55;0.70;;;;;;;;;;6296019;22;20106;-60
2023/03/04 13:41:15;;;;;;;2.63;0.90;;;;;;;;;;6295574;22;20536;-59
2023/03/04 13:43:46;;;;;;;1.15;0.68;;;;;;;;;;6294101;22;20437;-59
2023/03/04 13:46:22;;;;;;;2.00;0.85;;;;;;;;;;6296409;22;20109;-60
2023/03/04 13:48:49;;;;;;;3.00;0.85;;;;;;;;;;6293249;22;20030;-59
2023/03/04 13:51:42;;;;;;;1.95;0.88;;;;;;;;;;6293518;22;20053;-59
2023/03/04 13:54:29;;;;;;;1.85;0.65;;;;;;;;;;6296978;22;20019;-59
2023/03/04 13:56:59;;;;;;;3.75;0.73;;;;;;;;;;6297236;22;20062;-59
2023/03/04 13:59:44;;;;;;;3.50;0.80;;;;;;;;;;6299229;22;20460;-59
2023/03/04 14:02:15;;;;;;;1.58;0.60;;;;;;;;;;6300570;22;20024;-59
2023/03/04 14:04:59;;;;;;;0.70;0.63;;;;;;;;;;6297515;22;20476;-59
2023/03/04 14:07:31;;;;;;;1.67;0.63;;;;;;;;;;6298841;22;20406;-59
2023/03/04 14:10:11;;;;;;;3.83;1.25;;;;;;;;;;6299037;22;20019;-60
2023/03/04 14:12:41;;;;;;;0.68;0.60;;;;;;;;;;6270848;22;20457;-59
2023/03/04 14:15:22;;;;;;;0.80;0.55;;;;;;;;;;6296357;22;20038;-60
2023/03/04 14:17:51;;;;;;;2.17;0.60;;;;;;;;;;6299334;22;20387;-59
2023/03/04 14:20:31;;;;;;;1.38;0.77;;;;;;;;;;6299978;22;20340;-59
2023/03/04 14:23:00;;;;;;;2.25;0.75;;;;;;;;;;6300165;22;20108;-59
2023/03/04 14:25:35;;;;;;;8.30;0.80;;;;;;;;;;6299901;22;20034;-59
2023/03/04 14:28:19;;;;;;;3.65;1.15;;;;;;;;;;6301744;22;20023;-63
2023/03/04 14:30:54;;;;;;;2.88;1.30;;;;;;;;;;6298822;22;20475;-59
2023/03/04 14:33:23;;;;;;;2.13;1.30;;;;;;;;;;6300354;22;20022;-59
2023/03/04 14:35:58;;;;;;;1.40;0.88;;;;;;;;;;6301807;22;20023;-59
2023/03/04 14:38:28;;;;;;;24.25;1.15;;;;;;;;;;6300293;22;20051;-59
2023/03/04 14:41:06;;;;;;;1.75;0.77;;;;;;;;;;6300869;22;20023;-59
2023/03/04 14:43:41;;;;;;;1.48;0.57;;;;;;;;;;6302325;22;20471;-59
2023/03/04 14:46:17;;;;;;;2.60;0.57;;;;;;;;;;6300618;22;20027;-59
2023/03/04 14:48:47;;;;;;;0.88;0.60;;;;;;;;;;6300268;22;20154;-59
2023/03/04 14:51:32;;;;;;;1.67;0.68;;;;;;;;;;6301535;22;20027;-59
2023/03/04 14:54:06;;;;;;;2.58;0.52;;;;;;;;;;6301147;22;20635;-59
2023/03/04 14:56:34;;;;;;;1.95;0.70;;;;;;;;;;6298881;22;20552;-59
2023/03/04 14:59:02;;;;;;;3.28;1.17;;;;;;;;;;6301390;22;20061;-59
2023/03/04 15:01:37;;;;;;;1.30;0.52;;;;;;;;;;6300995;22;20094;-59
2023/03/04 15:04:07;;;;;;;3.30;0.70;;;;;;;;;;6301082;22;20129;-59
2023/03/04 15:06:51;;;;;;;0.80;0.45;;;;;;;;;;6299315;22;20031;-59
2023/03/04 15:09:21;;;;;;;0.85;0.73;;;;;;;;;;6300007;22;20104;-59
2023/03/04 15:12:15;;;;;;;2.17;0.90;;;;;;;;;;6299160;22;20098;-59
2023/03/04 15:14:42;;;;;;;1.10;0.80;;;;;;;;;;6298140;22;20066;-59
2023/03/04 15:17:23;;;;;;;2.30;0.90;;;;;;;;;;6299724;22;20513;-61
2023/03/04 15:20:05;;;;;;;1.35;0.60;;;;;;;;;;6298051;22;20015;-64